This is the latest recevied weather packets stored in our database for station/object OE-2100. If no packets are shown the sender has not sent any weather packets the latest 10 day(s).
| Time | Temp. | Humidity | Pressure | Rain* | Wind** | Luminosity | Snow |
|---|---|---|---|---|---|---|---|
| 1788329468 | 16.11° C | 76% | 1021.4 hPa | - | - | - | - |
| 1788327668 | 15.56° C | 76% | 1021.6 hPa | - | - | - | - |
| 1788325868 | 15° C | 76% | 1021.7 hPa | - | - | - | - |
| 1788324068 | 15° C | 76% | 1021.7 hPa | - | - | - | - |
| 1788300669 | 17.78° C | 66% | 1022.1 hPa | - | - | - | - |
| 1788293469 | 18.89° C | 61% | 1020.7 hPa | - | - | - | - |
| 1788282668 | 21.11° C | 54% | 1019.1 hPa | - | - | - | - |
| 1788277269 | 22.78° C | 51% | 1019.7 hPa | - | - | - | - |
| 1788275468 | 22.22° C | 49% | 1019.8 hPa | - | - | - | - |
| 1788270068 | 22.22° C | 51% | 1019.8 hPa | - | - | - | - |
| 1788268268 | 22.78° C | 51% | 1019.7 hPa | - | - | - | - |
| 1788266468 | 21.67° C | 53% | 1020 hPa | - | - | - | - |
| 1788264668 | 22.22° C | 53% | 1020.9 hPa | - | - | - | - |
| 1788262868 | 22.22° C | 55% | 1020.9 hPa | - | - | - | - |
| 1788261068 | 21.67° C | 56% | 1021 hPa | - | - | - | - |
| 1788259268 | 22.22° C | 57% | 1020.9 hPa | - | - | - | - |
| 1788257468 | 21.67° C | 59% | 1021.1 hPa | - | - | - | - |
| 1788255668 | 21.67° C | 58% | 1021 hPa | - | - | - | - |
| 1788253867 | 20.56° C | 61% | 1021.3 hPa | - | - | - | - |
| 1788252068 | 20° C | 68% | 1021.5 hPa | - | - | - | - |
| 1788180068 | 22.78° C | 60% | 1016.4 hPa | - | - | - | - |
| 1788178268 | 23.33° C | 59% | 1016.3 hPa | - | - | - | - |
| 1788176468 | 23.33° C | 58% | 1016.2 hPa | - | - | - | - |
| 1788174668 | 23.33° C | 59% | 1016.3 hPa | - | - | - | - |
| 1788172868 | 22.78° C | 64% | 1016.4 hPa | - | - | - | - |
* Rain since midnight (hover to see other rain measurements)
** Current wind speed in m/s (hover to see current wind gust speed)